createdAt,value
2019-05-11T00:22:04.026Z,40.40
2019-05-11T00:35:27.552Z,40.20
2019-05-11T00:48:50.401Z,40.00
2019-05-11T01:02:13.205Z,39.70
2019-05-11T01:29:11.227Z,39.20
2019-05-11T01:42:18.405Z,39.30
2019-05-11T01:55:25.546Z,38.90
2019-05-11T02:08:32.668Z,38.80
2019-05-11T02:21:39.814Z,38.60
2019-05-11T02:35:03.776Z,38.60
2019-05-11T02:48:26.591Z,38.40
2019-05-11T03:01:49.367Z,38.30
2019-05-11T03:15:12.165Z,39.10
2019-05-11T03:28:35.010Z,38.40
2019-05-11T03:42:12.037Z,38.40
2019-05-11T04:08:22.242Z,38.50
2019-05-11T04:21:29.409Z,38.40
2019-05-11T04:34:36.515Z,38.50
2019-05-11T04:47:43.673Z,38.50
2019-05-11T05:14:48.390Z,38.50
2019-05-11T05:28:11.217Z,38.50
2019-05-11T05:41:34.003Z,38.60
2019-05-11T05:54:56.808Z,38.50
2019-05-11T06:08:19.620Z,38.50
2019-05-11T06:47:50.541Z,39.10
2019-05-11T07:00:57.680Z,40.00
2019-05-11T07:14:19.292Z,40.90
2019-05-11T07:27:12.010Z,41.50
2019-05-11T07:40:19.176Z,41.80
2019-05-11T07:53:27.846Z,42.50
2019-05-11T08:34:25.134Z,42.20
2019-05-11T08:47:49.716Z,42.20
2019-05-11T09:14:47.918Z,42.30
2019-05-11T09:27:54.664Z,42.70
2019-05-11T09:54:39.718Z,42.80
2019-05-11T10:07:48.402Z,42.80
2019-05-11T10:20:54.283Z,42.80
2019-05-11T10:34:18.006Z,42.70
2019-05-11T10:47:40.485Z,42.60
2019-05-11T11:01:03.509Z,42.70
2019-05-11T11:14:28.462Z,42.80
2019-05-11T11:27:49.064Z,42.70
2019-05-11T11:41:11.705Z,42.90
2019-05-11T11:54:34.561Z,42.80
2019-05-11T12:21:01.289Z,43.10
2019-05-11T12:34:08.724Z,42.30
2019-05-11T12:47:21.103Z,42.50
2019-05-11T13:00:40.614Z,42.30
2019-05-11T14:09:09.301Z,41.20
2019-05-11T14:22:17.907Z,40.80
2019-05-11T14:35:23.695Z,38.10
2019-05-11T14:48:48.023Z,37.50
2019-05-11T15:02:10.347Z,36.00
2019-05-11T15:28:34.745Z,35.70
2019-05-11T15:41:41.959Z,34.80
2019-05-11T15:54:49.101Z,34.90
2019-05-11T16:07:58.816Z,34.70
2019-05-11T16:21:04.684Z,34.60
2019-05-11T16:34:28.277Z,35.10
2019-05-11T17:00:52.558Z,34.20
2019-05-11T17:13:59.907Z,34.10
2019-05-11T17:27:08.784Z,34.50
2019-05-11T17:40:14.286Z,34.60
2019-05-11T17:53:21.574Z,34.80
2019-05-11T18:47:22.535Z,35.20
2019-05-11T19:00:29.720Z,36.20
2019-05-11T19:13:38.658Z,37.10
2019-05-11T19:26:44.270Z,37.70
2019-05-11T19:39:51.514Z,38.20
2019-05-11T19:52:58.684Z,38.60
2019-05-11T20:33:56.955Z,39.10
2019-05-11T20:47:20.179Z,39.20
2019-05-11T21:13:44.291Z,39.60
2019-05-11T21:26:51.486Z,39.90
2019-05-11T21:39:58.684Z,40.20
2019-05-11T21:53:07.803Z,40.30
2019-05-11T22:06:13.124Z,40.40
2019-05-11T22:19:20.286Z,40.50
2019-05-11T22:32:44.216Z,40.40
2019-05-11T22:46:06.817Z,40.70
2019-05-11T22:59:29.664Z,40.40
2019-05-11T23:12:52.455Z,40.30
2019-05-11T23:26:17.626Z,40.40
